DW1774 Pasadena TX US current weather conditions

sailwx.info

Wind from 272 at 1 knots gusting 4

Air temperature 35.0° C
Dewpoint 25.2° C

Last reported at 2020-Aug-13 17:04 UTC.
Time now 2020-Aug-13 17:19 UTC

Location: N 29°36' W 095°06'.
View on Google Maps.

See reports from other nearby stations

  
Tides and Currents Weather Stations Pressure Air Temp Water Temp Dewpoint Dewpoint Depression Visibility Wind Speed Wind Dir Waves Ship Positions
date/time (UTC)wind fromknots sea level pressurealtimeterstation pressurevisibilityair tempwater tempwave heightnotes
2020-Aug-13 17:04 272 1 gusting 4 35.0
2020-Aug-13 16:59 238 1 gusting 4 34.4
2020-Aug-13 16:54 189 1 gusting 4 34.4
2020-Aug-13 16:49 282 2 gusting 6 33.9
2020-Aug-13 16:44 259 1 gusting 6 33.9
2020-Aug-13 16:39 223 1 gusting 6 34.4
2020-Aug-13 16:34 207 1 gusting 6 34.4
2020-Aug-13 16:29 259 1 gusting 6 34.4
2020-Aug-13 16:24 193 2 gusting 6 34.4
2020-Aug-13 16:19 224 1 gusting 5 34.4
2020-Aug-13 16:14 241 2 gusting 6 34.4
2020-Aug-13 16:09 283 2 gusting 7 34.4
2020-Aug-13 16:04 270 2 gusting 8 34.4
2020-Aug-13 15:59 168 2 gusting 8 34.4
2020-Aug-13 15:54 218 0 gusting 6 34.4
2020-Aug-13 15:49 266 1 gusting 6 33.9
2020-Aug-13 15:44 202 2 gusting 7 33.9
2020-Aug-13 15:39 266 1 gusting 7 33.9
2020-Aug-13 15:34 274 2 gusting 6 33.9
2020-Aug-13 15:29 248 1 gusting 6 33.3
2020-Aug-13 15:24 224 1 gusting 6 33.3
2020-Aug-13 15:19 251 0 gusting 7 33.3
2020-Aug-13 15:14 201 4 gusting 7 33.3
2020-Aug-13 15:09 238 1 gusting 6 33.3
2020-Aug-13 15:04 289 2 gusting 8 33.3
2020-Aug-13 14:59 223 2 gusting 8 32.8
2020-Aug-13 14:54 254 1 gusting 6 32.8
2020-Aug-13 14:49 244 1 gusting 6 32.2
2020-Aug-13 14:44 239 1 gusting 6 32.2
2020-Aug-13 14:39 252 1 gusting 6 31.7
2020-Aug-13 14:34 224 1 gusting 6 32.2
2020-Aug-13 14:29 205 2 gusting 6 31.7
2020-Aug-13 14:24 225 1 gusting 6 31.7
2020-Aug-13 14:19 202 1 gusting 6 31.7
2020-Aug-13 14:14 233 1 gusting 6 31.7
2020-Aug-13 14:09 211 1 gusting 6 31.7
2020-Aug-13 14:04 248 0 gusting 2 31.1
2020-Aug-13 13:59 280 0 gusting 2 30.6
2020-Aug-13 13:54 247 30.0
2020-Aug-13 13:49 261 2 gusting 6 30.0
2020-Aug-13 13:44 261 1 gusting 6 29.4
2020-Aug-13 13:39 281 1 gusting 6 28.9
2020-Aug-13 13:34 227 1 gusting 6 28.9
2020-Aug-13 13:29 251 1 gusting 6 28.3
2020-Aug-13 13:24 244 28.3
2020-Aug-13 13:19 281 27.8
2020-Aug-13 13:14 204 0 gusting 4 27.2
2020-Aug-13 13:09 200 1 gusting 4 27.2
2020-Aug-13 13:04 238 0 gusting 2 26.7
2020-Aug-13 12:59 239 0 gusting 2 26.7
2020-Aug-13 12:54 233 0 gusting 2 26.7
2020-Aug-13 12:49 237 26.1
2020-Aug-13 12:44 237 26.1
2020-Aug-13 12:39 237 25.6
2020-Aug-13 12:34 237 25.6
2020-Aug-13 12:29 237 25.6
2020-Aug-13 12:24 237 25.6
2020-Aug-13 12:19 237 25.6
2020-Aug-13 12:14 237 25.6
2020-Aug-13 12:09 237 25.6
2020-Aug-13 12:04 237 25.6
2020-Aug-13 11:59 237 25.6
2020-Aug-13 11:54 237 25.6
2020-Aug-13 11:49 237 25.6
2020-Aug-13 11:44 237 25.6
2020-Aug-13 11:39 237 25.6
2020-Aug-13 11:34 237 25.6
2020-Aug-13 11:29 237 25.6
2020-Aug-13 11:24 237 25.6
2020-Aug-13 11:19 237 25.6
2020-Aug-13 11:14 237 25.6
2020-Aug-13 11:09 237 25.6
2020-Aug-13 11:04 237 25.6
2020-Aug-13 10:59 237 25.6
2020-Aug-13 10:54 237 25.6
2020-Aug-13 10:49 237 25.6
2020-Aug-13 10:44 237 25.6
2020-Aug-13 10:39 237 25.6
2020-Aug-13 10:34 237 25.6
2020-Aug-13 10:29 237 25.6
2020-Aug-13 10:24 237 25.6
2020-Aug-13 10:19 237 25.6
2020-Aug-13 10:14 237 25.6
2020-Aug-13 10:09 237 25.6
2020-Aug-13 10:04 237 25.6
2020-Aug-13 09:59 237 25.6
2020-Aug-13 09:54 237 25.6
2020-Aug-13 09:49 237 25.6
2020-Aug-13 09:44 237 25.6
2020-Aug-13 09:39 237 25.6
2020-Aug-13 09:34 237 25.6
2020-Aug-13 09:29 237 25.6
2020-Aug-13 09:24 237 26.1
2020-Aug-13 09:19 237 26.1
2020-Aug-13 09:14 237 26.1
2020-Aug-13 09:09 237 26.1
2020-Aug-13 09:04 237 26.1
2020-Aug-13 08:59 237 26.1
2020-Aug-13 08:54 237 26.1
2020-Aug-13 08:49 237 26.1
2020-Aug-13 08:44 237 26.1
2020-Aug-13 08:39 237 26.1
2020-Aug-13 08:34 237 26.1
2020-Aug-13 08:29 237 26.7
2020-Aug-13 08:24 237 26.7
2020-Aug-13 08:19 237 26.7
2020-Aug-13 08:14 237 26.7
2020-Aug-13 08:09 237 26.7
2020-Aug-13 08:04 237 26.7
2020-Aug-13 07:59 237 26.7
2020-Aug-13 07:54 237 26.7
2020-Aug-13 07:49 237 26.7
2020-Aug-13 07:44 237 26.7
2020-Aug-13 07:39 237 26.7
2020-Aug-13 07:34 237 26.7
2020-Aug-13 07:29 237 26.7
2020-Aug-13 07:24 237 27.2
2020-Aug-13 07:19 237 27.2
2020-Aug-13 07:14 237 27.2
2020-Aug-13 07:09 237 27.2
2020-Aug-13 07:04 237 27.2
2020-Aug-13 06:59 237 27.2
2020-Aug-13 06:54 237 27.2
2020-Aug-13 06:49 238 27.2
2020-Aug-13 06:44 238 27.8
2020-Aug-13 06:34 238 0 gusting 4 27.8
2020-Aug-13 06:29 234 27.8
2020-Aug-13 06:24 245 0 gusting 4 27.8
2020-Aug-13 06:19 205 0 gusting 2 27.8
2020-Aug-13 06:14 212 0 gusting 2 27.8
2020-Aug-13 06:09 218 0 gusting 4 27.8
2020-Aug-13 06:04 230 1 gusting 6 27.8
2020-Aug-13 05:59 219 1 gusting 6 27.8
2020-Aug-13 05:54 213 2 gusting 7 27.8
2020-Aug-13 05:49 199 1 gusting 7 27.8
2020-Aug-13 05:44 229 2 gusting 7 27.8
2020-Aug-13 05:39 210 2 gusting 7 27.8
2020-Aug-13 05:34 199 2 gusting 7 27.8
2020-Aug-13 05:29 224 2 gusting 6 27.8
2020-Aug-13 05:24 214 1 gusting 6 27.8
2020-Aug-13 05:19 244 1 gusting 6 27.8
2020-Aug-13 05:14 230 1 gusting 6 27.8
2020-Aug-13 05:09 209 2 gusting 6 28.3
2020-Aug-13 05:04 185 2 gusting 6 28.3
2020-Aug-13 04:59 221 2 gusting 6 28.3
2020-Aug-13 04:54 196 2 gusting 6 28.3
2020-Aug-13 04:49 154 1 gusting 7 28.3
2020-Aug-13 04:44 247 1 gusting 7 28.3
2020-Aug-13 04:39 247 2 gusting 6 28.3
2020-Aug-13 04:34 132 1 gusting 5 28.3
2020-Aug-13 04:29 225 0 gusting 4 28.3
2020-Aug-13 04:24 185 1 gusting 6 28.3
2020-Aug-13 04:19 243 2 gusting 10 28.3
2020-Aug-13 04:14 251 0 gusting 10 28.3
2020-Aug-13 04:09 229 2 gusting 10 28.3
2020-Aug-13 04:04 192 0 gusting 6 28.3
2020-Aug-13 03:59 214 1 gusting 6 28.3
2020-Aug-13 03:54 196 1 gusting 6 28.3
2020-Aug-13 03:49 244 2 gusting 6 28.3
2020-Aug-13 03:44 227 0 gusting 7 28.9
2020-Aug-13 03:39 188 2 gusting 7 28.9
2020-Aug-13 03:34 210 2 gusting 7 28.9
2020-Aug-13 03:29 211 2 gusting 7 28.9
2020-Aug-13 03:24 199 1 gusting 7 28.9
2020-Aug-13 03:19 260 1 gusting 7 28.9
2020-Aug-13 03:14 192 2 gusting 6 28.9
2020-Aug-13 03:09 209 1 gusting 6 29.4
2020-Aug-13 03:04 201 2 gusting 8 29.4
2020-Aug-13 02:59 211 2 gusting 8 29.4
2020-Aug-13 02:54 180 1 gusting 8 29.4
2020-Aug-13 02:49 192 2 gusting 8 29.4
2020-Aug-13 02:44 189 3 gusting 8 29.4
2020-Aug-13 02:39 181 2 gusting 8 29.4
2020-Aug-13 02:34 213 3 gusting 8 29.4
2020-Aug-13 02:29 208 3 gusting 8 29.4
2020-Aug-13 02:24 199 2 gusting 7 29.4
2020-Aug-13 02:19 204 1 gusting 8 29.4
2020-Aug-13 02:14 217 2 gusting 8 29.4
2020-Aug-13 02:09 198 4 gusting 10 30.0
2020-Aug-13 02:04 139 2 gusting 10 30.0
2020-Aug-13 01:59 185 3 gusting 10 30.0
2020-Aug-13 01:54 209 2 gusting 7 30.0
2020-Aug-13 01:49 177 3 gusting 7 30.0
2020-Aug-13 01:44 202 2 gusting 10 30.0
2020-Aug-13 01:39 178 3 gusting 10 30.0
2020-Aug-13 01:34 207 2 gusting 8 30.0
2020-Aug-13 01:29 178 3 gusting 10 30.6
2020-Aug-13 01:24 182 2 gusting 10 30.6
2020-Aug-13 01:19 210 2 gusting 11 30.6
2020-Aug-13 01:14 190 5 gusting 11 30.6
2020-Aug-13 01:09 183 3 gusting 10 30.6
2020-Aug-13 01:04 188 4 gusting 10 30.6
2020-Aug-13 00:59 193 3 gusting 8 30.6
2020-Aug-13 00:54 174 2 gusting 8 30.6
2020-Aug-13 00:49 167 3 gusting 8 31.1
2020-Aug-13 00:44 212 3 gusting 10 31.1
2020-Aug-13 00:39 196 4 gusting 12 31.1
2020-Aug-13 00:34 189 6 gusting 12 31.1
2020-Aug-13 00:29 159 6 gusting 11 31.1
2020-Aug-13 00:24 165 4 gusting 10 31.1
2020-Aug-13 00:19 179 5 gusting 10 31.1
2020-Aug-13 00:14 172 3 gusting 8 31.7
2020-Aug-13 00:09 177 5 gusting 10 31.7
2020-Aug-13 00:04 173 2 gusting 10 31.7
2020-Aug-12 23:59 171 5 gusting 13 31.7
2020-Aug-12 23:54 153 6 gusting 13 32.2
2020-Aug-12 23:49 143 3 gusting 13 32.2
2020-Aug-12 23:44 195 5 gusting 14 32.8
2020-Aug-12 23:39 161 5 gusting 14 32.8
2020-Aug-12 23:34 175 2 gusting 10 32.8
2020-Aug-12 23:29 173 1 gusting 10 33.3
2020-Aug-12 23:24 175 6 gusting 13 33.3
2020-Aug-12 23:19 174 6 gusting 13 33.3
2020-Aug-12 23:14 167 5 gusting 12 33.9
2020-Aug-12 23:09 166 5 gusting 13 33.9
2020-Aug-12 23:04 166 4 gusting 13 33.9
2020-Aug-12 22:59 157 5 gusting 11 33.9
2020-Aug-12 22:54 183 1 gusting 13 34.4
2020-Aug-12 22:49 168 6 gusting 13 34.4
2020-Aug-12 22:44 181 4 gusting 10 34.4
2020-Aug-12 22:39 182 1 gusting 12 33.9
2020-Aug-12 22:34 196 4 gusting 12 33.9
2020-Aug-12 22:29 189 4 gusting 12 33.9
2020-Aug-12 22:24 174 2 gusting 12 33.3
2020-Aug-12 22:19 155 5 gusting 11 32.8
2020-Aug-12 22:14 166 4 gusting 8 32.8
2020-Aug-12 22:09 092 1 gusting 5 32.2
2020-Aug-12 22:04 135 1 gusting 6 32.2
2020-Aug-12 21:59 074 2 gusting 6 32.2
2020-Aug-12 21:54 119 1 gusting 6 32.2
2020-Aug-12 21:49 129 1 gusting 7 31.7
2020-Aug-12 21:44 125 1 gusting 8 32.2
2020-Aug-12 21:39 082 2 gusting 8 32.2
2020-Aug-12 21:34 108 2 gusting 6 32.8
2020-Aug-12 21:29 127 2 gusting 6 33.3
2020-Aug-12 21:24 122 3 gusting 6 33.9
2020-Aug-12 21:19 136 4 gusting 10 34.4
2020-Aug-12 21:14 151 4 gusting 10 34.4
2020-Aug-12 21:09 177 5 gusting 10 34.4
2020-Aug-12 21:04 207 2 gusting 7 34.4
2020-Aug-12 20:59 149 5 gusting 7 34.4
2020-Aug-12 20:54 176 1 gusting 7 33.9
2020-Aug-12 20:49 158 3 gusting 7 34.4
2020-Aug-12 20:44 151 1 gusting 7 34.4
2020-Aug-12 20:39 175 1 gusting 6 34.4
2020-Aug-12 20:34 231 0 gusting 6 34.4
2020-Aug-12 20:29 165 1 gusting 7 34.4
2020-Aug-12 20:24 161 2 gusting 7 34.4
2020-Aug-12 20:19 168 1 gusting 6 34.4
2020-Aug-12 20:14 159 1 gusting 6 35.0
2020-Aug-12 20:09 195 1 gusting 4 35.0
2020-Aug-12 20:04 170 1 gusting 6 35.0
2020-Aug-12 19:59 210 1 gusting 6 35.0
2020-Aug-12 19:54 172 1 gusting 8 35.6
2020-Aug-12 19:49 150 4 gusting 8 36.1
2020-Aug-12 19:44 137 1 gusting 6 36.7
2020-Aug-12 19:39 170 1 gusting 6 36.7
2020-Aug-12 19:34 328 1 gusting 6 36.1
2020-Aug-12 19:29 064 0 gusting 2 35.6
2020-Aug-12 19:24 010 0 gusting 4 35.0
2020-Aug-12 19:19 019 1 gusting 4 35.0
2020-Aug-12 19:14 294 1 gusting 6 35.6
2020-Aug-12 19:09 246 1 gusting 6 35.6
2020-Aug-12 19:04 314 1 gusting 6 35.6
2020-Aug-12 18:59 202 1 gusting 6 35.6
2020-Aug-12 18:54 265 2 gusting 6 35.6
2020-Aug-12 18:49 299 2 gusting 6 36.1
2020-Aug-12 18:44 303 1 gusting 5 36.1
2020-Aug-12 18:39 261 1 gusting 5 36.1
2020-Aug-12 18:34 274 1 gusting 5 35.6
2020-Aug-12 18:29 235 1 gusting 4 36.1
2020-Aug-12 18:24 222 0 gusting 6 36.1
2020-Aug-12 18:19 281 2 gusting 6 36.1
2020-Aug-12 18:14 271 0 gusting 6 36.1
2020-Aug-12 18:09 145 0 gusting 4 36.1
2020-Aug-12 18:04 265 0 gusting 5 36.1
2020-Aug-12 17:59 230 1 gusting 6 36.1
2020-Aug-12 17:54 250 0 gusting 6 35.6
2020-Aug-12 17:49 227 1 gusting 6 35.6
2020-Aug-12 17:44 321 2 gusting 6 35.6
2020-Aug-12 17:39 231 1 gusting 8 35.6
2020-Aug-12 17:34 276 1 gusting 8 35.6
2020-Aug-12 17:29 148 4 gusting 8 35.6
2020-Aug-12 17:24 260 2 gusting 7 35.0
2020-Aug-12 17:19 233 2 gusting 7 35.0
2020-Aug-12 17:14 264 2 gusting 7 35.0
2020-Aug-12 17:09 326 1 gusting 6 35.0
2020-Aug-12 17:04 247 1 gusting 6 35.0
2020-Aug-12 16:59 206 3 gusting 6 35.6
2020-Aug-12 16:54 301 1 gusting 10 35.0
2020-Aug-12 16:49 213 1 gusting 10 35.0
2020-Aug-12 16:44 232 2 gusting 8 35.0
2020-Aug-12 16:39 244 4 gusting 8 34.4
2020-Aug-12 16:34 244 2 gusting 8 34.4
2020-Aug-12 16:29 241 4 gusting 8 35.0
2020-Aug-12 16:24 279 3 gusting 8 35.0
2020-Aug-12 16:19 244 4 gusting 8 34.4
2020-Aug-12 16:14 180 2 gusting 8 34.4
2020-Aug-12 16:09 219 2 gusting 10 33.9
2020-Aug-12 16:04 230 2 gusting 10 33.9
2020-Aug-12 15:59 240 4 gusting 10 33.9
2020-Aug-12 15:54 221 3 gusting 8 33.9
2020-Aug-12 15:49 254 3 gusting 8 33.3
2020-Aug-12 15:44 265 3 gusting 8 33.3
2020-Aug-12 15:39 247 2 gusting 8 33.3
2020-Aug-12 15:34 227 4 gusting 10 33.3
2020-Aug-12 15:29 219 2 gusting 10 33.3
2020-Aug-12 15:24 249 2 gusting 10 33.3
2020-Aug-12 15:19 175 2 gusting 10 33.3
2020-Aug-12 15:14 232 3 gusting 8 33.3
2020-Aug-12 15:09 271 4 gusting 8 33.3
2020-Aug-12 15:04 275 2 gusting 7 32.8
2020-Aug-12 14:59 253 3 gusting 7 32.8
2020-Aug-12 14:54 261 2 gusting 10 32.8
2020-Aug-12 14:49 278 3 gusting 10 32.8
2020-Aug-12 14:44 246 3 gusting 8 32.8
2020-Aug-12 14:39 213 0 gusting 5 32.8
2020-Aug-12 14:34 263 0 gusting 8 32.8
2020-Aug-12 14:29 232 1 gusting 8 32.2
2020-Aug-12 14:24 245 1 gusting 7 32.2
2020-Aug-12 14:19 217 3 gusting 7 32.2
2020-Aug-12 14:14 263 1 gusting 6 31.7
2020-Aug-12 14:09 248 1 gusting 6 31.7
2020-Aug-12 14:04 248 1 gusting 5 31.7
2020-Aug-12 13:59 284 1 gusting 7 31.7
2020-Aug-12 13:54 200 1 gusting 7 31.1
2020-Aug-12 13:49 236 0 gusting 4 31.1
2020-Aug-12 13:44 242 30.6
2020-Aug-12 13:39 228 1 gusting 4 30.6
2020-Aug-12 13:34 216 1 gusting 4 30.0
2020-Aug-12 13:29 289 1 gusting 2 30.0
2020-Aug-12 13:24 258 1 gusting 5 29.4
2020-Aug-12 13:19 203 0 gusting 5 29.4
2020-Aug-12 13:14 225 1 gusting 2 28.9
2020-Aug-12 13:09 235 0 gusting 5 28.3
2020-Aug-12 13:04 224 0 gusting 5 28.3
2020-Aug-12 12:59 250 0 gusting 2 27.8
2020-Aug-12 12:54 234 0 gusting 2 27.2
2020-Aug-12 12:49 221 0 gusting 2 27.2
2020-Aug-12 12:44 213 0 gusting 1 26.7
2020-Aug-12 12:39 212 26.7
2020-Aug-12 12:34 212 26.7
2020-Aug-12 12:29 212 26.7
2020-Aug-12 12:24 195 0 gusting 2 26.1
2020-Aug-12 12:19 208 0 gusting 2 26.1
2020-Aug-12 12:14 238 0 gusting 2 26.1
2020-Aug-12 12:09 259 26.1
2020-Aug-12 12:04 259 26.1
2020-Aug-12 11:59 259 0 gusting 1 26.1
2020-Aug-12 11:54 223 0 gusting 1 26.1
2020-Aug-12 11:49 222 26.1
2020-Aug-12 11:44 222 0 gusting 1 26.7
2020-Aug-12 11:39 222 26.7
2020-Aug-12 11:34 222 26.7
2020-Aug-12 11:29 222 26.7
2020-Aug-12 11:24 222 26.7
2020-Aug-12 11:19 222 0 gusting 1 26.7
2020-Aug-12 11:14 222 26.7
2020-Aug-12 11:09 222 26.7
2020-Aug-12 11:04 222 26.7
2020-Aug-12 10:59 215 0 gusting 4 26.7
2020-Aug-12 10:54 228 1 gusting 4 26.7
2020-Aug-12 10:49 235 0 gusting 2 26.7
2020-Aug-12 10:44 217 26.7
2020-Aug-12 10:39 207 26.7
2020-Aug-12 10:34 218 0 gusting 2 26.7
2020-Aug-12 10:29 215 0 gusting 2 26.7
2020-Aug-12 10:24 233 0 gusting 2 26.7
2020-Aug-12 10:19 232 0 gusting 2 26.7
2020-Aug-12 10:14 202 0 gusting 1 26.7
2020-Aug-12 10:09 202 26.7
2020-Aug-12 10:04 202 26.7
2020-Aug-12 09:59 202 0 gusting 2 26.7
2020-Aug-12 09:54 202 0 gusting 2 26.7
2020-Aug-12 09:49 203 0 gusting 2 26.7
2020-Aug-12 09:44 194 0 gusting 2 26.7
2020-Aug-12 09:39 225 26.7
2020-Aug-12 09:34 222 0 gusting 2 26.7
2020-Aug-12 09:29 219 0 gusting 2 26.7
2020-Aug-12 09:24 219 0 gusting 1 26.7
2020-Aug-12 09:19 219 26.7
2020-Aug-12 09:14 219 26.7
2020-Aug-12 09:09 219 26.7
2020-Aug-12 09:04 219 26.7
2020-Aug-12 08:59 219 0 gusting 2 27.2
2020-Aug-12 08:54 225 27.2
2020-Aug-12 08:49 225 27.2
2020-Aug-12 08:44 225 0 gusting 1 27.2
2020-Aug-12 08:39 225 0 gusting 1 27.2
2020-Aug-12 08:34 225 27.2
2020-Aug-12 08:29 225 27.2
2020-Aug-12 08:24 225 27.2
2020-Aug-12 08:19 225 27.2
2020-Aug-12 08:14 225 27.2
2020-Aug-12 08:09 233 27.2
2020-Aug-12 08:04 233 27.2
2020-Aug-12 07:59 233 0 gusting 2 27.2
2020-Aug-12 07:54 232 0 gusting 2 27.2
2020-Aug-12 07:49 184 0 gusting 5 27.2
2020-Aug-12 07:44 182 2 gusting 5 27.2
2020-Aug-12 07:39 201 1 gusting 4 27.2
2020-Aug-12 07:34 186 1 gusting 4 27.2
2020-Aug-12 07:29 208 1 gusting 4 27.2
2020-Aug-12 07:24 162 1 gusting 4 27.8
2020-Aug-12 07:19 169 0 gusting 4 27.8
2020-Aug-12 07:14 206 0 gusting 2 27.8
2020-Aug-12 07:09 202 0 gusting 2 27.8
2020-Aug-12 07:04 203 0 gusting 4 27.8
2020-Aug-12 06:59 185 1 gusting 4 27.8
2020-Aug-12 06:54 175 1 gusting 4 27.8
2020-Aug-12 06:49 212 27.8
2020-Aug-12 06:44 200 0 gusting 4 27.8
2020-Aug-12 06:39 358 0 gusting 2 27.8
2020-Aug-12 06:34 209 0 gusting 2 27.8
2020-Aug-12 06:29 202 0 gusting 2 27.8
2020-Aug-12 06:24 196 27.8
2020-Aug-12 06:19 196 0 gusting 2 27.8
2020-Aug-12 06:14 188 0 gusting 2 27.8
2020-Aug-12 06:09 186 0 gusting 2 27.8
2020-Aug-12 06:04 208 0 gusting 2 27.8
2020-Aug-12 05:59 210 27.8
2020-Aug-12 05:54 209 27.8
2020-Aug-12 05:49 210 0 gusting 4 27.8
2020-Aug-12 05:44 229 1 gusting 4 27.8
2020-Aug-12 05:39 210 1 gusting 2 27.8
2020-Aug-12 05:34 221 27.8
2020-Aug-12 05:29 220 1 gusting 2 27.8
2020-Aug-12 05:24 217 0 gusting 2 27.8
2020-Aug-12 05:19 200 0 gusting 4 28.3
2020-Aug-12 05:14 198 1 gusting 4 28.3
2020-Aug-12 05:09 148 0 gusting 2 28.3
2020-Aug-12 05:04 204 0 gusting 6 28.3
2020-Aug-12 04:59 177 2 gusting 6 28.3
2020-Aug-12 04:54 159 2 gusting 6 28.3
2020-Aug-12 04:49 170 2 gusting 6 28.3
2020-Aug-12 04:44 183 2 gusting 6 28.3
2020-Aug-12 04:39 171 1 gusting 6 28.3
2020-Aug-12 04:34 194 1 gusting 5 28.3
2020-Aug-12 04:29 167 0 gusting 4 28.3
2020-Aug-12 04:24 222 1 gusting 6 28.3
2020-Aug-12 04:19 142 1 gusting 6 28.3
2020-Aug-12 04:14 162 1 gusting 6 28.3
2020-Aug-12 04:09 164 0 gusting 6 28.3
2020-Aug-12 04:04 177 1 gusting 6 28.3
2020-Aug-12 03:59 158 1 gusting 5 28.3
2020-Aug-12 03:54 174 1 gusting 5 28.3
2020-Aug-12 03:49 167 0 gusting 4 28.3
2020-Aug-12 03:44 169 0 gusting 4 28.3
2020-Aug-12 03:39 162 0 gusting 4 28.9
2020-Aug-12 03:34 177 2 gusting 4 28.9
2020-Aug-12 03:29 171 1 gusting 4 28.9
2020-Aug-12 03:24 170 1 gusting 5 28.9
2020-Aug-12 03:19 172 1 gusting 6 28.9
2020-Aug-12 03:14 192 2 gusting 6 28.9
2020-Aug-12 03:09 178 2 gusting 7 28.9
2020-Aug-12 03:04 198 1 gusting 7 28.9
2020-Aug-12 02:59 180 3 gusting 7 28.9
2020-Aug-12 02:54 164 1 gusting 7 28.9
2020-Aug-12 02:49 175 2 gusting 7 28.9
2020-Aug-12 02:44 192 1 gusting 7 28.9
2020-Aug-12 02:39 182 4 gusting 7 29.4
2020-Aug-12 02:34 165 2 gusting 7 29.4
2020-Aug-12 02:29 179 2 gusting 6 29.4
2020-Aug-12 02:24 162 1 gusting 7 29.4
2020-Aug-12 02:19 146 4 gusting 7 29.4
2020-Aug-12 02:14 177 1 gusting 10 29.4
2020-Aug-12 02:09 175 5 gusting 10 29.4
2020-Aug-12 02:04 169 3 gusting 10 29.4
2020-Aug-12 01:59 172 3 gusting 13 29.4
2020-Aug-12 01:54 168 6 gusting 13 29.4
2020-Aug-12 01:49 178 1 gusting 8 29.4
2020-Aug-12 01:44 200 5 gusting 11 30.0
2020-Aug-12 01:39 164 3 gusting 11 30.0
2020-Aug-12 01:34 156 4 gusting 10 30.0
2020-Aug-12 01:29 173 5 gusting 10 30.0
2020-Aug-12 01:24 182 5 gusting 10 30.0
2020-Aug-12 01:19 176 4 gusting 12 30.0
2020-Aug-12 01:14 177 6 gusting 12 30.0
2020-Aug-12 01:09 165 4 gusting 10 30.6
2020-Aug-12 01:04 195 5 gusting 11 30.6
2020-Aug-12 00:59 170 6 gusting 11 30.6
2020-Aug-12 00:54 167 5 gusting 11 30.6
2020-Aug-12 00:49 178 4 gusting 7 30.6
2020-Aug-12 00:44 191 2 gusting 10 30.6
2020-Aug-12 00:39 161 2 gusting 10 31.1
2020-Aug-12 00:34 176 5 gusting 12 31.1
2020-Aug-12 00:29 170 4 gusting 12 31.1
2020-Aug-12 00:24 170 4 gusting 10 31.1
2020-Aug-12 00:19 165 3 gusting 10 31.7
2020-Aug-12 00:14 177 5 gusting 11 31.7
2020-Aug-12 00:09 164 5 gusting 11 31.7
2020-Aug-12 00:04 188 3 gusting 8 32.2
2020-Aug-11 23:59 196 4 gusting 8 32.2
2020-Aug-11 23:54 170 4 gusting 10 32.2
2020-Aug-11 23:49 203 3 gusting 10 32.2
2020-Aug-11 23:44 180 4 gusting 12 32.2
2020-Aug-11 23:39 166 4 gusting 15 32.8
2020-Aug-11 23:34 176 6 gusting 15 32.8
2020-Aug-11 23:29 185 3 gusting 14 32.8
2020-Aug-11 23:24 172 7 gusting 14 32.8
2020-Aug-11 23:19 172 5 gusting 11 32.8
2020-Aug-11 23:14 158 6 gusting 14 33.3
2020-Aug-11 23:09 174 6 gusting 14 33.3
2020-Aug-11 23:04 154 3 gusting 14 33.3
2020-Aug-11 22:59 153 7 gusting 14 33.3
2020-Aug-11 22:54 167 6 gusting 13 33.3
2020-Aug-11 22:49 150 3 gusting 12 33.3
2020-Aug-11 22:44 165 6 gusting 12 33.3
2020-Aug-11 22:39 156 6 gusting 13 33.3
2020-Aug-11 22:34 148 6 gusting 13 33.3
2020-Aug-11 22:29 162 5 gusting 13 33.3
2020-Aug-11 22:24 176 5 gusting 12 33.3
2020-Aug-11 22:19 138 4 gusting 12 33.9
2020-Aug-11 22:14 168 6 gusting 12 33.9
2020-Aug-11 22:04 148 6 gusting 14 34.4
2020-Aug-11 21:59 144 6 gusting 13 34.4
2020-Aug-11 21:54 171 8 gusting 13 34.4
2020-Aug-11 21:49 178 4 gusting 13 33.9
2020-Aug-11 21:44 160 6 gusting 13 33.9
2020-Aug-11 21:39 143 5 gusting 12 33.9
2020-Aug-11 21:34 199 6 gusting 12 33.9
2020-Aug-11 21:29 162 6 gusting 11 33.9
2020-Aug-11 21:24 168 5 gusting 13 33.9
2020-Aug-11 21:19 157 5 gusting 13 33.9
2020-Aug-11 21:14 162 4 gusting 13 34.4
2020-Aug-11 21:09 155 6 gusting 13 34.4
2020-Aug-11 21:04 171 4 gusting 13 34.4
2020-Aug-11 20:59 164 6 gusting 13 34.4
2020-Aug-11 20:54 175 5 gusting 10 35.0
2020-Aug-11 20:49 188 5 gusting 10 35.6
2020-Aug-11 20:44 175 4 gusting 10 35.6
2020-Aug-11 20:39 215 6 gusting 10 35.0
2020-Aug-11 20:34 160 4 gusting 11 35.6
2020-Aug-11 20:29 169 5 gusting 11 35.6
2020-Aug-11 20:24 172 4 gusting 10 35.6
2020-Aug-11 20:19 141 5 gusting 10 35.6
2020-Aug-11 20:14 200 5 gusting 10 35.0
2020-Aug-11 20:09 222 4 gusting 10 35.0
2020-Aug-11 20:04 164 2 gusting 10 34.4
2020-Aug-11 19:59 160 4 gusting 7 35.0
2020-Aug-11 19:54 148 3 gusting 8 35.6
2020-Aug-11 19:49 204 4 gusting 8 35.0
2020-Aug-11 19:44 162 2 gusting 8 35.0
2020-Aug-11 19:39 155 4 gusting 8 35.0
2020-Aug-11 19:34 150 3 gusting 11 35.0
2020-Aug-11 19:29 165 4 gusting 11 35.0
2020-Aug-11 19:24 159 3 gusting 10 35.0
2020-Aug-11 19:19 159 4 gusting 10 35.0
2020-Aug-11 19:14 164 3 gusting 10 35.0
2020-Aug-11 19:09 142 4 gusting 10 35.0
2020-Aug-11 19:04 158 5 gusting 10 35.6
2020-Aug-11 18:59 188 4 gusting 10 35.6
2020-Aug-11 18:54 158 4 gusting 10 35.6
2020-Aug-11 18:49 187 2 gusting 10 35.6
2020-Aug-11 18:44 164 4 gusting 6 35.6
2020-Aug-11 18:39 183 2 gusting 6 35.0
2020-Aug-11 18:34 218 2 gusting 6 35.0
2020-Aug-11 18:29 161 3 gusting 7 35.0
2020-Aug-11 18:24 165 1 gusting 7 35.0
2020-Aug-11 18:19 168 2 gusting 11 34.4
2020-Aug-11 18:14 169 5 gusting 11 35.0
2020-Aug-11 18:09 147 6 gusting 11 35.6
2020-Aug-11 18:04 157 2 gusting 6 35.6
2020-Aug-11 17:59 157 2 gusting 10 35.6
2020-Aug-11 17:54 209 5 gusting 10 35.6
2020-Aug-11 17:49 244 3 gusting 8 35.0
2020-Aug-11 17:44 165 4 gusting 8 35.0
2020-Aug-11 17:39 224 0 gusting 6 34.4
2020-Aug-11 17:34 213 3 gusting 6 34.4
2020-Aug-11 17:29 225 2 gusting 6 35.0
2020-Aug-11 17:24 335 1 gusting 7 35.0
2020-Aug-11 17:19 223 4 gusting 7 35.6
2020-Aug-11 17:14 221 1 gusting 7 35.6
2020-Aug-11 17:09 301 2 gusting 7 35.6
2020-Aug-11 17:04 213 3 gusting 7 35.6